createdAt,value
2022-11-08T00:01:00.573Z,1026.78
2022-11-08T00:03:29.521Z,1026.82
2022-11-08T00:05:56.478Z,1026.84
2022-11-08T00:08:23.413Z,1026.81
2022-11-08T00:10:51.512Z,1026.74
2022-11-08T00:13:22.264Z,1026.71
2022-11-08T00:15:48.984Z,1026.68
2022-11-08T00:18:16.346Z,1026.65
2022-11-08T00:20:43.414Z,1026.55
2022-11-08T00:23:10.705Z,1026.63
2022-11-08T00:25:37.466Z,1026.56
2022-11-08T00:28:05.723Z,1026.66
2022-11-08T00:30:32.474Z,1026.64
2022-11-08T00:32:59.229Z,1026.68
2022-11-08T00:35:26.114Z,1026.68
2022-11-08T00:37:54.098Z,1026.67
2022-11-08T00:40:20.860Z,1026.63
2022-11-08T00:42:47.792Z,1026.65
2022-11-08T00:45:16.161Z,1026.68
2022-11-08T00:47:44.101Z,1026.78
2022-11-08T00:50:11.045Z,1026.75
2022-11-08T00:52:37.850Z,1026.66
2022-11-08T00:55:08.697Z,1026.54
2022-11-08T00:57:57.973Z,1026.66
2022-11-08T01:00:25.170Z,1026.74
2022-11-08T01:02:51.940Z,1026.71
2022-11-08T01:05:19.062Z,1026.83
2022-11-08T01:07:45.794Z,1026.89
2022-11-08T01:10:13.909Z,1026.83
2022-11-08T01:12:40.734Z,1026.82
2022-11-08T01:15:09.262Z,1026.72
2022-11-08T01:17:37.381Z,1026.71
2022-11-08T01:20:06.448Z,1026.60
2022-11-08T01:22:33.316Z,1026.61
2022-11-08T01:25:00.136Z,1026.60
2022-11-08T01:27:26.839Z,1026.58
2022-11-08T01:29:54.019Z,1026.62
2022-11-08T01:32:20.850Z,1026.51
2022-11-08T01:34:49.158Z,1026.59
2022-11-08T01:37:15.886Z,1026.61
2022-11-08T01:39:42.737Z,1026.58
2022-11-08T01:42:09.573Z,1026.51
2022-11-08T01:44:57.665Z,1026.56
2022-11-08T01:47:24.592Z,1026.61
2022-11-08T01:49:55.622Z,1026.57
2022-11-08T01:52:32.039Z,1026.53
2022-11-08T01:55:16.229Z,1026.60
2022-11-08T01:57:48.353Z,1026.55
2022-11-08T02:00:16.630Z,1026.52
2022-11-08T02:02:47.312Z,1026.53
2022-11-08T02:05:17.790Z,1026.47
2022-11-08T02:07:44.610Z,1026.49
2022-11-08T02:10:11.914Z,1026.47
2022-11-08T02:12:38.834Z,1026.42
2022-11-08T02:15:06.745Z,1026.38
2022-11-08T02:17:33.697Z,1026.43
2022-11-08T02:20:00.457Z,1026.37
2022-11-08T02:22:33.572Z,1026.28
2022-11-08T02:25:02.597Z,1026.25
2022-11-08T02:27:29.603Z,1026.12
2022-11-08T02:29:56.822Z,1026.14
2022-11-08T02:32:24.006Z,1026.18
2022-11-08T02:34:55.137Z,1026.12
2022-11-08T02:37:23.506Z,1026.03
2022-11-08T02:39:50.306Z,1026.17
2022-11-08T02:42:20.164Z,1026.19
2022-11-08T02:44:47.943Z,1026.20
2022-11-08T02:47:15.439Z,1026.17
2022-11-08T02:49:43.726Z,1026.19
2022-11-08T02:52:10.961Z,1026.07
2022-11-08T02:54:38.016Z,1026.03
2022-11-08T02:57:04.814Z,1026.10
2022-11-08T02:59:33.057Z,1026.09
2022-11-08T03:01:59.984Z,1026.11
2022-11-08T03:04:27.976Z,1026.13
2022-11-08T03:06:54.840Z,1026.10
2022-11-08T03:09:21.889Z,1026.13
2022-11-08T03:11:48.663Z,1026.21
2022-11-08T03:14:16.593Z,1026.20
2022-11-08T03:16:44.719Z,1026.20
2022-11-08T03:19:12.634Z,1026.22
2022-11-08T03:21:39.364Z,1026.14
2022-11-08T03:24:07.117Z,1026.25
2022-11-08T03:26:33.899Z,1026.27
2022-11-08T03:29:00.897Z,1026.22
2022-11-08T03:31:27.703Z,1026.25
2022-11-08T03:33:57.041Z,1026.23
2022-11-08T03:36:23.789Z,1026.28
2022-11-08T03:38:50.900Z,1026.22
2022-11-08T03:41:17.965Z,1026.32
2022-11-08T03:43:44.743Z,1026.24
2022-11-08T03:46:11.546Z,1026.18
2022-11-08T03:48:38.386Z,1026.20
2022-11-08T03:51:06.686Z,1026.18
2022-11-08T03:53:33.521Z,1026.33
2022-11-08T03:56:01.011Z,1026.31
2022-11-08T03:58:32.097Z,1026.29
2022-11-08T04:01:02.752Z,1026.25
2022-11-08T04:03:29.774Z,1026.31
2022-11-08T04:05:59.695Z,1026.31
2022-11-08T04:08:27.882Z,1026.22
2022-11-08T04:10:54.841Z,1026.21
2022-11-08T04:13:22.026Z,1026.22
2022-11-08T04:15:54.693Z,1026.20
2022-11-08T04:18:22.742Z,1026.21
2022-11-08T04:20:51.802Z,1026.15
2022-11-08T04:23:18.985Z,1026.17
2022-11-08T04:25:53.978Z,1026.07
2022-11-08T04:28:23.976Z,1026.10
2022-11-08T04:30:55.171Z,1026.08
2022-11-08T04:33:22.533Z,1026.34
2022-11-08T04:35:50.243Z,1026.22
2022-11-08T04:38:17.286Z,1026.13
2022-11-08T04:40:44.857Z,1026.15
2022-11-08T04:43:13.284Z,1026.07
2022-11-08T04:45:41.212Z,1026.04
2022-11-08T04:48:08.216Z,1026.01
2022-11-08T04:50:35.162Z,1026.06
2022-11-08T04:53:01.890Z,1025.95
2022-11-08T04:55:29.803Z,1025.90
2022-11-08T04:57:58.086Z,1025.93
2022-11-08T05:00:26.955Z,1025.96
2022-11-08T05:02:54.305Z,1026.03
2022-11-08T05:05:22.466Z,1025.97
2022-11-08T05:07:49.270Z,1026.07
2022-11-08T05:10:16.374Z,1025.99
2022-11-08T05:12:43.135Z,1026.06
2022-11-08T05:15:10.675Z,1026.10
2022-11-08T05:17:39.151Z,1026.03
2022-11-08T05:20:07.001Z,1025.94
2022-11-08T05:22:33.956Z,1026.13
2022-11-08T05:25:00.717Z,1026.10
2022-11-08T05:27:29.397Z,1026.03
2022-11-08T05:29:56.329Z,1025.98
2022-11-08T05:32:23.177Z,1026.04
2022-11-08T05:34:51.610Z,1025.98
2022-11-08T05:37:18.661Z,1025.94
2022-11-08T05:39:45.789Z,1025.98
2022-11-08T05:42:13.681Z,1026.06
2022-11-08T05:44:40.473Z,1026.17
2022-11-08T05:47:13.661Z,1026.16
2022-11-08T05:49:40.396Z,1026.05
2022-11-08T05:52:11.496Z,1026.01
2022-11-08T05:54:38.293Z,1025.96
2022-11-08T05:57:05.474Z,1025.94
2022-11-08T05:59:32.289Z,1025.97
2022-11-08T06:01:59.469Z,1025.88
2022-11-08T06:04:27.662Z,1025.91
2022-11-08T06:06:54.500Z,1025.92
2022-11-08T06:09:22.991Z,1025.92
2022-11-08T06:11:50.866Z,1025.79
2022-11-08T06:14:18.530Z,1025.87
2022-11-08T06:16:47.194Z,1025.83
2022-11-08T06:19:17.216Z,1025.84
2022-11-08T06:21:45.081Z,1025.87
2022-11-08T06:24:15.505Z,1025.96
2022-11-08T06:26:44.895Z,1026.02
2022-11-08T06:29:11.655Z,1026.02
2022-11-08T06:31:42.864Z,1026.02
2022-11-08T06:34:10.554Z,1026.02
2022-11-08T06:36:37.358Z,1025.86
2022-11-08T06:39:04.701Z,1025.88
2022-11-08T06:41:31.570Z,1025.85
2022-11-08T06:43:59.759Z,1025.91
2022-11-08T06:46:26.553Z,1025.90
2022-11-08T06:48:55.572Z,1025.96
2022-11-08T06:51:23.149Z,1025.95
2022-11-08T06:53:51.122Z,1025.93
2022-11-08T06:56:21.607Z,1025.93
2022-11-08T06:58:52.031Z,1026.01
2022-11-08T07:01:22.811Z,1026.01
2022-11-08T07:03:51.246Z,1025.95
2022-11-08T07:06:21.227Z,1025.95
2022-11-08T07:08:54.495Z,1025.90
2022-11-08T07:11:21.657Z,1025.87
2022-11-08T07:13:49.688Z,1025.83
2022-11-08T07:16:18.535Z,1025.95
2022-11-08T07:18:51.419Z,1025.93
2022-11-08T07:21:19.604Z,1025.87
2022-11-08T07:23:47.303Z,1025.71
2022-11-08T07:26:16.812Z,1025.56
2022-11-08T07:28:44.970Z,1025.46
2022-11-08T07:31:12.613Z,1025.28
2022-11-08T07:33:41.096Z,1025.17
2022-11-08T07:36:10.820Z,1025.04
2022-11-08T07:38:38.736Z,1024.95
2022-11-08T07:41:06.563Z,1024.87
2022-11-08T07:43:36.045Z,1024.81
2022-11-08T07:46:03.683Z,1024.60
2022-11-08T07:48:30.846Z,1024.46
2022-11-08T07:50:57.849Z,1024.45
2022-11-08T07:53:26.547Z,1024.29
2022-11-08T07:55:55.589Z,1024.17
2022-11-08T07:58:22.799Z,1024.07
2022-11-08T08:00:54.079Z,1024.02
2022-11-08T08:03:21.619Z,1023.90
2022-11-08T08:06:00.991Z,1023.82
2022-11-08T08:08:31.108Z,1023.71
2022-11-08T08:10:59.963Z,1023.56
2022-11-08T08:13:27.204Z,1023.43
2022-11-08T08:15:58.178Z,1023.29
2022-11-08T08:18:25.185Z,1023.22
2022-11-08T08:20:52.265Z,1023.18
2022-11-08T08:23:19.501Z,1023.12
2022-11-08T08:25:48.299Z,1023.05
2022-11-08T08:28:15.321Z,1023.01
2022-11-08T08:30:42.686Z,1022.93
2022-11-08T08:33:27.849Z,1022.97
2022-11-08T08:35:56.212Z,1022.89
2022-11-08T08:38:23.621Z,1022.83
2022-11-08T08:40:53.557Z,1022.75
2022-11-08T08:43:22.292Z,1022.74
2022-11-08T08:45:50.368Z,1022.63
2022-11-08T08:48:19.005Z,1022.57
2022-11-08T08:50:47.191Z,1022.48
2022-11-08T08:53:19.708Z,1022.43
2022-11-08T08:55:47.442Z,1022.43
2022-11-08T08:58:16.384Z,1022.39
2022-11-08T09:03:31.253Z,1022.24
2022-11-08T09:06:00.775Z,1022.21
2022-11-08T09:08:30.866Z,1022.22
2022-11-08T09:11:00.967Z,1022.12
2022-11-08T09:13:30.280Z,1022.13
2022-11-08T09:16:01.587Z,1022.13
2022-11-08T09:18:29.913Z,1022.20
2022-11-08T09:20:57.827Z,1022.09
2022-11-08T09:23:27.147Z,1021.97
2022-11-08T09:25:57.419Z,1022.06
2022-11-08T09:28:31.206Z,1021.99
2022-11-08T09:31:04.201Z,1021.90
2022-11-08T09:33:34.306Z,1021.79
2022-11-08T09:36:04.062Z,1021.76
2022-11-08T09:38:34.662Z,1021.78
2022-11-08T09:41:18.053Z,1021.70
2022-11-08T09:44:02.555Z,1021.55
2022-11-08T09:46:38.352Z,1021.43
2022-11-08T09:49:08.821Z,1021.38
2022-11-08T09:51:36.645Z,1021.20
2022-11-08T09:54:06.692Z,1021.16
2022-11-08T09:56:36.755Z,1021.06
2022-11-08T09:59:13.592Z,1021.02
2022-11-08T10:01:47.533Z,1020.89
2022-11-08T10:04:17.460Z,1020.80
2022-11-08T10:07:15.494Z,1020.71
2022-11-08T10:10:23.536Z,1020.77
2022-11-08T10:13:01.607Z,1020.65
2022-11-08T10:15:37.089Z,1020.59
2022-11-08T10:18:35.272Z,1020.57
2022-11-08T10:21:09.961Z,1020.44
2022-11-08T10:23:44.344Z,1020.32
2022-11-08T10:26:16.657Z,1020.29
2022-11-08T10:28:47.201Z,1020.32
2022-11-08T10:31:14.989Z,1020.31
2022-11-08T10:33:48.246Z,1020.28
2022-11-08T10:36:27.422Z,1020.18
2022-11-08T10:39:03.106Z,1020.20
2022-11-08T10:41:38.225Z,1020.19
2022-11-08T10:44:13.084Z,1020.12
2022-11-08T10:46:46.502Z,1019.93
2022-11-08T10:49:18.405Z,1019.91
2022-11-08T10:51:47.152Z,1019.88
2022-11-08T10:54:49.615Z,1019.87
2022-11-08T10:57:22.767Z,1019.79
2022-11-08T10:59:50.943Z,1019.66
2022-11-08T11:02:22.894Z,1019.62
2022-11-08T11:04:53.082Z,1019.62
2022-11-08T11:07:33.646Z,1019.54
2022-11-08T11:10:25.708Z,1019.38
2022-11-08T11:13:02.666Z,1019.36
2022-11-08T11:15:35.219Z,1019.17
2022-11-08T11:18:03.473Z,1019.24
2022-11-08T11:20:33.027Z,1019.04
2022-11-08T11:23:01.984Z,1019.06
2022-11-08T11:25:30.936Z,1018.92
2022-11-08T11:28:01.427Z,1018.86
2022-11-08T11:30:31.492Z,1018.77
2022-11-08T11:33:22.741Z,1018.74
2022-11-08T11:35:55.223Z,1018.63
2022-11-08T11:38:34.547Z,1018.60
2022-11-08T11:41:10.798Z,1018.61
2022-11-08T11:43:45.858Z,1018.57
2022-11-08T11:46:20.266Z,1018.58
2022-11-08T11:48:54.223Z,1018.52
2022-11-08T11:51:26.035Z,1018.49
2022-11-08T11:53:53.178Z,1018.68
2022-11-08T11:56:51.953Z,1018.54
2022-11-08T11:59:31.094Z,1018.46
2022-11-08T12:02:20.596Z,1018.52
2022-11-08T12:05:04.281Z,1018.44
2022-11-08T12:07:42.997Z,1018.51
2022-11-08T12:10:22.163Z,1018.59
2022-11-08T12:12:59.958Z,1018.79
2022-11-08T12:15:32.721Z,1019.06
2022-11-08T12:18:41.446Z,1019.08
2022-11-08T12:21:13.001Z,1019.33
2022-11-08T12:24:04.342Z,1019.30
2022-11-08T12:26:38.284Z,1019.24
2022-11-08T12:29:26.767Z,1019.25
2022-11-08T12:32:09.572Z,1019.07
2022-11-08T12:34:51.799Z,1018.98
2022-11-08T12:37:30.590Z,1018.82
2022-11-08T12:40:00.876Z,1018.55
2022-11-08T12:42:59.284Z,1018.49
2022-11-08T12:45:38.438Z,1018.51
2022-11-08T12:48:17.104Z,1018.41
2022-11-08T12:51:00.399Z,1018.37
2022-11-08T12:53:55.201Z,1018.35
2022-11-08T12:56:28.259Z,1018.30
2022-11-08T12:58:56.877Z,1018.20
2022-11-08T13:01:27.618Z,1018.11
2022-11-08T13:04:26.212Z,1018.17
2022-11-08T13:07:09.159Z,1018.13
2022-11-08T13:09:45.220Z,1018.09
2022-11-08T13:12:41.048Z,1018.09
2022-11-08T13:15:17.802Z,1018.08
2022-11-08T13:18:29.066Z,1018.06
2022-11-08T13:20:56.157Z,1018.10
2022-11-08T13:23:34.012Z,1018.07
2022-11-08T13:26:24.992Z,1018.20
2022-11-08T13:28:54.598Z,1018.18
2022-11-08T13:31:44.924Z,1018.42
2022-11-08T13:34:22.549Z,1018.46
2022-11-08T13:37:05.559Z,1018.44
2022-11-08T13:39:55.723Z,1018.51
2022-11-08T13:42:39.806Z,1018.58
2022-11-08T13:45:31.589Z,1018.57
2022-11-08T13:48:01.467Z,1018.57
2022-11-08T13:50:51.994Z,1018.69
2022-11-08T13:53:41.017Z,1018.71
2022-11-08T13:56:44.069Z,1018.73
2022-11-08T13:59:56.888Z,1018.77
2022-11-08T14:02:39.835Z,1018.93
2022-11-08T14:05:32.022Z,1018.98
2022-11-08T14:08:28.091Z,1019.01
2022-11-08T14:11:15.849Z,1019.06
2022-11-08T14:14:13.689Z,1019.03
2022-11-08T14:16:53.093Z,1019.07
2022-11-08T14:19:27.181Z,1019.20
2022-11-08T14:21:57.023Z,1019.21
2022-11-08T14:24:31.390Z,1019.27
2022-11-08T14:26:58.431Z,1019.33
2022-11-08T14:29:29.775Z,1019.44
2022-11-08T14:32:05.648Z,1019.42
2022-11-08T14:34:39.822Z,1019.37
2022-11-08T14:37:17.752Z,1019.34
2022-11-08T14:39:49.734Z,1019.52
2022-11-08T14:42:24.542Z,1019.53
2022-11-08T14:44:55.499Z,1019.59
2022-11-08T14:47:25.728Z,1019.65
2022-11-08T14:49:54.065Z,1019.76
2022-11-08T14:52:22.815Z,1019.86
2022-11-08T14:54:59.917Z,1019.97
2022-11-08T14:57:37.453Z,1019.95
2022-11-08T15:00:14.707Z,1020.06
2022-11-08T15:02:44.380Z,1020.04
2022-11-08T15:05:34.695Z,1020.15
2022-11-08T15:08:04.982Z,1020.17
2022-11-08T15:10:37.096Z,1020.22
2022-11-08T15:13:05.139Z,1020.36
2022-11-08T15:15:35.082Z,1020.43
2022-11-08T15:18:13.451Z,1020.57
2022-11-08T15:20:53.586Z,1020.59
2022-11-08T15:23:35.994Z,1020.53
2022-11-08T15:26:03.381Z,1020.57
2022-11-08T15:28:33.089Z,1020.48
2022-11-08T15:31:01.919Z,1020.50
2022-11-08T15:33:35.324Z,1020.49
2022-11-08T15:36:14.055Z,1020.48
2022-11-08T15:38:44.001Z,1020.52
2022-11-08T15:41:34.041Z,1020.54
2022-11-08T15:44:20.598Z,1020.68
2022-11-08T15:46:50.536Z,1020.73
2022-11-08T15:49:20.746Z,1020.78
2022-11-08T15:51:49.971Z,1020.90
2022-11-08T15:54:17.584Z,1021.11
2022-11-08T15:56:45.563Z,1021.13
2022-11-08T15:59:21.029Z,1021.00
2022-11-08T16:01:55.066Z,1021.15
2022-11-08T16:04:22.773Z,1021.04
2022-11-08T16:06:51.164Z,1021.14
2022-11-08T16:09:19.297Z,1021.05
2022-11-08T16:11:46.969Z,1021.03
2022-11-08T16:14:16.869Z,1020.97
2022-11-08T16:16:44.160Z,1021.03
2022-11-08T16:19:22.196Z,1021.07
2022-11-08T16:21:51.133Z,1020.98
2022-11-08T16:24:18.278Z,1021.08
2022-11-08T16:26:46.049Z,1021.15
2022-11-08T16:29:20.758Z,1021.16
2022-11-08T16:31:52.732Z,1021.16
2022-11-08T16:34:19.774Z,1021.14
2022-11-08T16:36:51.059Z,1021.15
2022-11-08T16:39:19.248Z,1021.17
2022-11-08T16:41:46.049Z,1021.13
2022-11-08T16:44:13.001Z,1021.23
2022-11-08T16:46:43.016Z,1021.16
2022-11-08T16:49:19.611Z,1021.14
2022-11-08T16:51:46.932Z,1021.14
2022-11-08T16:54:19.989Z,1021.10
2022-11-08T16:56:46.960Z,1021.10
2022-11-08T16:59:13.680Z,1021.08
2022-11-08T17:01:41.601Z,1021.20
2022-11-08T17:04:09.037Z,1021.13
2022-11-08T17:06:37.327Z,1021.27
2022-11-08T17:09:04.951Z,1021.30
2022-11-08T17:11:33.303Z,1021.41
2022-11-08T17:14:03.518Z,1021.44
2022-11-08T17:16:30.414Z,1021.51
2022-11-08T17:18:59.653Z,1021.60
2022-11-08T17:21:45.695Z,1021.76
2022-11-08T17:24:19.808Z,1021.63
2022-11-08T17:26:49.630Z,1021.55
2022-11-08T17:29:16.368Z,1021.57
2022-11-08T17:31:44.517Z,1021.59
2022-11-08T17:34:11.264Z,1021.61
2022-11-08T17:36:39.530Z,1021.65
2022-11-08T17:39:06.265Z,1021.81
2022-11-08T17:41:33.506Z,1021.78
2022-11-08T17:44:01.893Z,1021.68
2022-11-08T17:46:30.079Z,1021.64
2022-11-08T17:48:56.961Z,1021.71
2022-11-08T17:51:23.763Z,1021.73
2022-11-08T17:53:52.899Z,1021.74
2022-11-08T17:56:19.630Z,1021.72
2022-11-08T17:58:46.420Z,1021.67
2022-11-08T18:01:15.155Z,1021.74
2022-11-08T18:03:42.246Z,1021.78
2022-11-08T18:06:13.873Z,1021.75
2022-11-08T18:08:41.336Z,1021.91
2022-11-08T18:11:08.757Z,1021.90
2022-11-08T18:13:36.130Z,1021.85
2022-11-08T18:16:07.826Z,1021.97
2022-11-08T18:18:36.622Z,1022.01
2022-11-08T18:21:04.013Z,1021.90
2022-11-08T18:23:31.249Z,1021.94
2022-11-08T18:25:58.456Z,1022.00
2022-11-08T18:28:26.545Z,1022.13
2022-11-08T18:30:55.811Z,1022.14
2022-11-08T18:33:22.978Z,1022.10
2022-11-08T18:35:51.712Z,1022.16
2022-11-08T18:38:18.739Z,1022.21
2022-11-08T18:40:48.919Z,1022.18
2022-11-08T18:43:17.234Z,1022.16
2022-11-08T18:45:44.519Z,1022.27
2022-11-08T18:48:11.493Z,1022.37
2022-11-08T18:50:40.602Z,1022.23
2022-11-08T18:53:09.793Z,1022.30
2022-11-08T18:55:36.562Z,1022.34
2022-11-08T18:58:03.682Z,1022.34
2022-11-08T19:00:30.488Z,1022.36
2022-11-08T19:03:02.773Z,1022.46
2022-11-08T19:05:29.720Z,1022.49
2022-11-08T19:07:58.024Z,1022.49
2022-11-08T19:10:26.639Z,1022.59
2022-11-08T19:12:58.337Z,1022.47
2022-11-08T19:15:26.184Z,1022.51
2022-11-08T19:17:53.126Z,1022.44
2022-11-08T19:20:22.380Z,1022.37
2022-11-08T19:22:53.077Z,1022.45
2022-11-08T19:25:19.837Z,1022.39
2022-11-08T19:27:48.483Z,1022.32
2022-11-08T19:30:18.411Z,1022.34
2022-11-08T19:32:45.571Z,1022.33
2022-11-08T19:35:12.684Z,1022.31
2022-11-08T19:37:40.095Z,1022.30
2022-11-08T19:40:08.347Z,1022.26
2022-11-08T19:42:39.246Z,1022.26
2022-11-08T19:45:08.966Z,1022.31
2022-11-08T19:47:35.703Z,1022.35
2022-11-08T19:50:02.621Z,1022.24
2022-11-08T19:52:29.578Z,1022.22
2022-11-08T19:54:56.878Z,1022.28
2022-11-08T19:57:23.618Z,1022.22
2022-11-08T19:59:50.456Z,1022.16
2022-11-08T20:02:18.702Z,1022.10
2022-11-08T20:04:47.677Z,1022.07
2022-11-08T20:07:14.505Z,1022.10
2022-11-08T20:09:41.734Z,1022.10
2022-11-08T20:12:08.636Z,1022.05
2022-11-08T20:14:35.495Z,1022.13
2022-11-08T20:17:02.460Z,1022.13
2022-11-08T20:19:31.947Z,1022.28
2022-11-08T20:22:00.917Z,1022.28
2022-11-08T20:24:29.152Z,1022.15
2022-11-08T20:26:57.163Z,1022.27
2022-11-08T20:29:24.046Z,1022.34
2022-11-08T20:31:51.865Z,1022.32
2022-11-08T20:34:18.976Z,1022.29
2022-11-08T20:36:50.783Z,1022.43
2022-11-08T20:39:19.108Z,1022.39
2022-11-08T20:41:45.862Z,1022.43
2022-11-08T20:44:12.682Z,1022.66
2022-11-08T20:46:43.253Z,1022.72
2022-11-08T20:49:10.149Z,1022.63
2022-11-08T20:51:37.646Z,1022.67
2022-11-08T20:54:06.628Z,1022.72
2022-11-08T20:56:35.561Z,1022.70
2022-11-08T20:59:02.748Z,1022.69
2022-11-08T21:01:30.604Z,1022.57
2022-11-08T21:03:57.499Z,1022.60
2022-11-08T21:06:28.147Z,1022.69
2022-11-08T21:09:00.712Z,1022.78
2022-11-08T21:11:33.799Z,1022.76
2022-11-08T21:14:00.743Z,1022.68
2022-11-08T21:16:35.079Z,1022.71
2022-11-08T21:19:05.329Z,1022.83
2022-11-08T21:21:32.260Z,1022.82
2022-11-08T21:23:59.242Z,1022.88
2022-11-08T21:26:27.433Z,1022.92
2022-11-08T21:28:55.935Z,1022.90
2022-11-08T21:31:23.388Z,1022.85
2022-11-08T21:33:50.251Z,1022.88
2022-11-08T21:36:18.581Z,1022.85
2022-11-08T21:38:45.735Z,1022.81
2022-11-08T21:41:13.184Z,1022.79
2022-11-08T21:43:42.080Z,1022.96
2022-11-08T21:46:18.753Z,1022.99
2022-11-08T21:48:52.836Z,1022.99
2022-11-08T21:51:20.308Z,1022.91
2022-11-08T21:53:53.998Z,1022.88
2022-11-08T21:56:24.046Z,1022.77
2022-11-08T21:58:51.355Z,1022.85
2022-11-08T22:01:23.076Z,1022.81
2022-11-08T22:03:56.241Z,1022.81
2022-11-08T22:06:23.308Z,1022.95
2022-11-08T22:08:50.317Z,1022.79
2022-11-08T22:11:17.077Z,1022.82
2022-11-08T22:13:44.951Z,1022.81
2022-11-08T22:16:11.690Z,1022.89
2022-11-08T22:21:27.187Z,1022.77
2022-11-08T22:23:54.106Z,1022.72
2022-11-08T22:26:21.054Z,1022.77
2022-11-08T22:28:49.313Z,1022.72
2022-11-08T22:31:16.039Z,1022.76
2022-11-08T22:33:45.279Z,1022.77
2022-11-08T22:36:12.162Z,1022.70
2022-11-08T22:38:39.134Z,1022.74
2022-11-08T22:41:06.240Z,1022.66
2022-11-08T22:43:34.468Z,1022.59
2022-11-08T22:46:01.922Z,1022.59
2022-11-08T22:48:28.814Z,1022.64
2022-11-08T22:50:57.273Z,1022.52
2022-11-08T22:53:24.091Z,1022.56
2022-11-08T22:55:53.074Z,1022.61
2022-11-08T22:58:20.836Z,1022.59
2022-11-08T23:01:09.785Z,1022.68
2022-11-08T23:03:36.542Z,1022.67
2022-11-08T23:06:06.950Z,1022.73
2022-11-08T23:08:36.560Z,1022.78
2022-11-08T23:11:04.863Z,1022.75
2022-11-08T23:13:32.133Z,1022.65
2022-11-08T23:16:01.091Z,1022.64
2022-11-08T23:18:28.919Z,1022.63
2022-11-08T23:20:56.915Z,1022.67
2022-11-08T23:23:25.295Z,1022.77
2022-11-08T23:25:55.568Z,1023.09
2022-11-08T23:28:22.652Z,1023.07
2022-11-08T23:30:50.542Z,1023.06
2022-11-08T23:33:19.592Z,1023.01
2022-11-08T23:35:46.722Z,1022.92
2022-11-08T23:38:13.798Z,1022.83
2022-11-08T23:40:41.945Z,1022.78
2022-11-08T23:43:11.704Z,1022.83
2022-11-08T23:45:38.436Z,1022.85
2022-11-08T23:48:05.711Z,1022.77
2022-11-08T23:50:32.421Z,1022.68
2022-11-08T23:53:02.338Z,1022.66
2022-11-08T23:55:29.213Z,1022.77
2022-11-08T23:57:57.849Z,1022.77
